Time;durP1;ratioP1;P1;durP2;ratioP2;P2;SDS_P1;SDS_P2;PMS_P1;PMS_P2;Temp;Humidity;BMP_temperature;BMP_pressure;BME280_temperature;BME280_humidity;BME280_pressure;Samples;Min_cycle;Max_cycle;Signal;HPM_P1;HPM_P2
2022/03/02 00:02:48;;;;;;;27.40;17.00;;;;;;;-2.62;70.36;101298.94;10401783;28;20104;-74
2022/03/02 00:07:50;;;;;;;27.83;17.25;;;;;;;-2.14;70.77;101297.47;10418749;28;20052;-73
2022/03/02 00:12:51;;;;;;;19.50;16.33;;;;;;;-2.38;70.88;101304.25;10419018;28;20049;-72
2022/03/02 00:17:53;;;;;;;28.23;17.67;;;;;;;-2.16;70.18;101296.56;10418702;28;20057;-73
2022/03/02 00:22:55;;;;;;;24.20;17.75;;;;;;;-2.72;70.18;101304.53;10418424;28;20049;-73
2022/03/02 00:27:56;;;;;;;19.85;16.48;;;;;;;-2.93;71.69;101296.75;10418527;28;20103;-73
2022/03/02 00:33:01;;;;;;;22.98;17.90;;;;;;;-2.86;72.82;101304.81;10401195;28;20057;-73
2022/03/02 00:38:06;;;;;;;24.23;19.52;;;;;;;-2.30;71.25;101290.84;10400616;28;20475;-72
2022/03/02 00:43:09;;;;;;;21.20;17.38;;;;;;;-2.43;71.41;101280.00;10418510;28;20041;-73
2022/03/02 00:48:11;;;;;;;24.40;16.45;;;;;;;-2.44;70.87;101268.78;10417739;28;20063;-72
2022/03/02 00:53:13;;;;;;;25.75;17.90;;;;;;;-2.71;71.54;101260.81;10417640;28;20107;-74
2022/03/02 00:58:14;;;;;;;26.75;17.08;;;;;;;-2.94;71.89;101265.03;10416895;28;20049;-72
2022/03/02 01:03:16;;;;;;;20.40;17.58;;;;;;;-2.68;72.27;101255.81;10399870;28;20041;-73
2022/03/02 01:08:18;;;;;;;21.73;16.73;;;;;;;-3.02;72.89;101247.50;10417086;28;20041;-72
2022/03/02 01:13:19;;;;;;;23.33;17.30;;;;;;;-2.86;72.53;101234.47;10416522;28;20045;-72
2022/03/02 01:18:21;;;;;;;22.33;16.63;;;;;;;-2.91;72.68;101224.00;10416718;28;20143;-72
2022/03/02 01:23:22;;;;;;;19.10;16.40;;;;;;;-3.23;73.05;101214.03;10416188;28;20550;-73
2022/03/02 01:28:24;;;;;;;17.17;15.45;;;;;;;-3.40;73.77;101229.63;10416607;28;20041;-71
2022/03/02 01:33:26;;;;;;;18.33;16.17;;;;;;;-3.19;74.57;101216.78;10399328;28;20414;-72
2022/03/02 01:38:27;;;;;;;17.90;15.93;;;;;;;-3.36;74.41;101207.50;10416828;28;20487;-73
2022/03/02 01:43:29;;;;;;;24.88;16.00;;;;;;;-3.31;74.83;101219.72;10416262;28;20511;-73
2022/03/02 01:48:31;;;;;;;19.27;16.73;;;;;;;-2.88;72.85;101218.06;10416629;28;20046;-72
2022/03/02 01:53:33;;;;;;;21.17;17.52;;;;;;;-3.18;73.72;101212.56;10416099;28;20076;-72
2022/03/02 01:58:35;;;;;;;19.42;17.17;;;;;;;-3.20;73.54;101197.03;10416414;28;20045;-72
2022/03/02 02:03:36;;;;;;;27.38;17.50;;;;;;;-3.45;75.03;101202.84;10416347;28;20050;-72
2022/03/02 02:08:38;;;;;;;27.35;17.60;;;;;;;-3.36;74.37;101199.78;10415916;28;20048;-73
2022/03/02 02:13:39;;;;;;;23.55;16.75;;;;;;;-3.57;75.01;101190.31;10422864;28;20431;-72
2022/03/02 02:18:41;;;;;;;26.25;18.00;;;;;;;-3.55;73.71;101198.09;10424882;28;20055;-72
2022/03/02 02:23:43;;;;;;;25.70;17.48;;;;;;;-3.70;75.61;101197.44;10424469;28;20049;-72
2022/03/02 02:28:44;;;;;;;25.98;18.15;;;;;;;-3.30;74.10;101189.75;10423549;28;20041;-72
2022/03/02 02:33:46;;;;;;;24.30;17.30;;;;;;;-3.35;73.66;101188.69;10424049;28;20045;-72
2022/03/02 02:38:48;;;;;;;28.73;18.38;;;;;;;-3.44;74.17;101176.31;10422543;28;20103;-72
2022/03/02 02:43:50;;;;;;;21.10;17.65;;;;;;;-3.40;73.64;101178.22;10423167;28;20088;-72
2022/03/02 02:48:51;;;;;;;26.38;16.90;;;;;;;-3.52;74.52;101166.50;10422249;28;20044;-71
2022/03/02 02:53:53;;;;;;;26.70;18.95;;;;;;;-3.70;74.56;101167.47;10422409;28;20056;-74
2022/03/02 02:58:55;;;;;;;23.20;18.15;;;;;;;-3.67;75.13;101162.47;10403869;28;20045;-73
2022/03/02 03:03:56;;;;;;;27.98;17.95;;;;;;;-3.66;74.40;101153.06;10421911;28;20499;-72
2022/03/02 03:08:58;;;;;;;23.80;18.08;;;;;;;-3.88;75.24;101149.56;10421355;28;20041;-72
2022/03/02 03:14:06;;;;;;;26.05;18.30;;;;;;;-3.74;75.05;101146.72;10403362;28;20045;-73
2022/03/02 03:19:08;;;;;;;31.30;18.58;;;;;;;-3.86;74.72;101145.34;10421304;28;20518;-72
2022/03/02 03:24:09;;;;;;;24.90;19.15;;;;;;;-3.99;75.57;101143.06;10420135;28;20050;-72
2022/03/02 03:29:11;;;;;;;26.10;19.15;;;;;;;-3.93;76.06;101145.03;10420067;28;20088;-73
2022/03/02 03:34:12;;;;;;;23.77;18.33;;;;;;;-3.86;75.52;101124.81;10403621;28;20458;-73
2022/03/02 03:39:14;;;;;;;23.00;18.00;;;;;;;-3.79;75.44;101128.53;10420922;28;20038;-73
2022/03/02 03:44:15;;;;;;;24.55;18.13;;;;;;;-3.99;75.55;101130.22;10401870;28;20112;-73
2022/03/02 03:49:17;;;;;;;26.65;18.20;;;;;;;-3.93;76.00;101116.78;10419444;28;20052;-73
2022/03/02 03:54:19;;;;;;;30.58;19.33;;;;;;;-3.92;75.07;101109.13;10420395;28;20048;-73
2022/03/02 03:59:20;;;;;;;25.73;18.77;;;;;;;-4.34;76.56;101109.00;10418817;28;20048;-72
2022/03/02 04:04:22;;;;;;;27.15;19.73;;;;;;;-4.39;77.65;101107.00;10419229;28;20470;-73
2022/03/02 04:09:24;;;;;;;34.53;19.98;;;;;;;-4.35;78.06;101109.78;10418640;28;20495;-72
2022/03/02 04:14:25;;;;;;;22.67;17.05;;;;;;;-4.06;77.17;101105.97;10418637;28;20411;-72
2022/03/02 04:19:27;;;;;;;22.00;17.35;;;;;;;-3.74;76.05;101103.91;10418357;28;20091;-73
2022/03/02 04:24:28;;;;;;;23.00;17.90;;;;;;;-4.12;77.53;101098.00;10417836;28;20037;-72
2022/03/02 04:29:30;;;;;;;33.28;19.27;;;;;;;-3.77;75.60;101100.34;10418137;28;20060;-74
2022/03/02 04:34:32;;;;;;;20.58;18.42;;;;;;;-4.11;77.63;101101.44;10416947;28;20123;-72
2022/03/02 04:39:33;;;;;;;30.08;18.85;;;;;;;-4.07;77.10;101088.81;10417887;28;20051;-72
2022/03/02 04:44:35;;;;;;;27.85;18.70;;;;;;;-3.90;77.97;101092.09;10417521;28;20049;-73
2022/03/02 04:49:37;;;;;;;27.13;19.42;;;;;;;-3.93;76.13;101085.97;10417819;28;20046;-73
2022/03/02 04:59:58;;;;;;;20.55;17.67;;;;;;;-4.29;78.16;101080.06;10416857;28;20041;-73
2022/03/02 05:05:00;;;;;;;19.23;17.27;;;;;;;-4.20;78.39;101094.22;10417345;28;20049;-73
2022/03/02 05:10:04;;;;;;;25.75;18.10;;;;;;;-3.79;77.71;101077.16;10416450;28;20041;-72
2022/03/02 05:15:08;;;;;;;27.42;19.40;;;;;;;-3.72;77.22;101081.72;10415886;28;20072;-72
2022/03/02 05:20:11;;;;;;;20.23;18.15;;;;;;;-3.98;77.89;101085.78;10415801;28;20041;-73
2022/03/02 05:25:15;;;;;;;27.90;18.20;;;;;;;-3.90;78.05;101081.81;10416124;28;20432;-72
2022/03/02 05:30:19;;;;;;;27.50;19.00;;;;;;;-3.75;78.21;101089.31;10415965;28;20046;-73
2022/03/02 05:35:21;;;;;;;27.10;18.55;;;;;;;-3.43;76.51;101082.94;10416054;28;20052;-73
2022/03/02 05:40:22;;;;;;;37.22;21.20;;;;;;;-3.52;76.31;101091.97;10398323;28;20048;-73
2022/03/02 05:45:27;;;;;;;31.08;21.33;;;;;;;-3.78;77.05;101091.75;10419550;28;20072;-73
2022/03/02 05:50:29;;;;;;;40.00;23.02;;;;;;;-3.94;78.38;101092.78;10424319;28;20088;-72
2022/03/02 05:55:30;;;;;;;38.95;21.60;;;;;;;-3.77;77.95;101090.06;10424201;28;20107;-72
2022/03/02 06:00:32;;;;;;;29.13;20.60;;;;;;;-3.77;78.48;101095.19;10424216;28;20037;-72
2022/03/02 06:05:34;;;;;;;39.83;21.50;;;;;;;-3.59;77.40;101095.97;10423878;28;20057;-73
2022/03/02 06:10:36;;;;;;;34.47;21.85;;;;;;;-3.24;76.38;101094.84;10423742;28;20037;-72
2022/03/02 06:15:37;;;;;;;33.83;19.75;;;;;;;-3.45;76.77;101101.69;10422871;28;20046;-72
2022/03/02 06:20:41;;;;;;;25.20;18.42;;;;;;;-2.93;74.53;101103.81;10404841;28;20041;-72
2022/03/02 06:25:43;;;;;;;31.13;18.20;;;;;;;-3.18;74.53;101107.13;10404864;28;20060;-73
2022/03/02 06:30:44;;;;;;;23.42;18.70;;;;;;;-3.08;74.58;101097.25;10422402;28;20076;-72
2022/03/02 06:35:48;;;;;;;32.50;19.48;;;;;;;-3.15;74.61;101096.94;10422080;28;20134;-72
2022/03/02 06:41:02;;;;;;;27.55;18.83;;;;;;;-3.37;75.92;101113.16;10403996;28;20037;-72
2022/03/02 06:46:06;;;;;;;22.88;18.13;;;;;;;-3.35;76.49;101119.28;10403988;28;20050;-72
2022/03/02 06:51:13;;;;;;;25.83;18.40;;;;;;;-3.27;77.03;101119.59;10421619;28;20129;-72
2022/03/02 06:56:18;;;;;;;40.50;18.45;;;;;;;-2.83;75.50;101098.22;10420012;28;20050;-72
2022/03/02 07:01:29;;;;;;;36.22;19.63;;;;;;;-2.63;75.03;101105.00;10420683;28;20043;-72
2022/03/02 07:06:31;;;;;;;28.77;16.55;;;;;;;-2.12;71.85;101084.63;10421248;28;20464;-72
2022/03/02 07:11:33;;;;;;;23.30;16.77;;;;;;;-1.95;70.05;101092.06;10420447;28;20045;-72
2022/03/02 07:16:35;;;;;;;26.23;17.60;;;;;;;-2.39;72.85;101096.47;10402830;28;20527;-72
2022/03/02 07:21:39;;;;;;;22.55;16.13;;;;;;;-2.30;73.29;101097.69;10420043;28;20076;-73
2022/03/02 07:26:44;;;;;;;26.17;16.77;;;;;;;-2.30;72.39;101089.09;10420173;28;20041;-72
2022/03/02 07:31:48;;;;;;;20.45;15.00;;;;;;;-2.33;72.25;101089.84;10420350;28;20052;-71
2022/03/02 07:36:55;;;;;;;17.13;14.13;;;;;;;-2.20;71.44;101098.91;10420245;28;20133;-71
2022/03/02 07:41:57;;;;;;;20.50;14.40;;;;;;;-2.01;70.78;101103.03;10401957;28;20050;-73
2022/03/02 07:46:59;;;;;;;23.65;15.05;;;;;;;-1.94;70.08;101106.72;10401762;28;20037;-71
2022/03/02 07:52:05;;;;;;;19.08;15.50;;;;;;;-1.69;69.74;101099.00;10419062;28;20041;-72
2022/03/02 07:57:09;;;;;;;26.85;15.50;;;;;;;-1.64;69.88;101094.91;10419223;28;20474;-71
2022/03/02 08:02:15;;;;;;;25.13;16.48;;;;;;;-1.55;69.94;101100.38;10418452;28;20042;-73
2022/03/02 08:07:19;;;;;;;17.02;15.27;;;;;;;-1.38;69.02;101094.88;10401415;28;20041;-74
2022/03/02 08:12:22;;;;;;;21.77;16.38;;;;;;;-1.12;68.51;101091.47;10402694;28;20048;-73
2022/03/02 08:17:24;;;;;;;19.92;17.08;;;;;;;-0.96;67.99;101092.84;10420225;28;20412;-73
2022/03/02 08:22:29;;;;;;;19.40;15.50;;;;;;;-0.64;65.92;101080.94;10420255;28;20033;-72
2022/03/02 08:27:30;;;;;;;24.50;14.70;;;;;;;-0.09;64.71;101069.63;10402426;28;20502;-71
2022/03/02 08:32:39;;;;;;;17.80;15.68;;;;;;;0.37;62.53;101072.56;10402761;28;20507;-72
2022/03/02 08:37:42;;;;;;;17.20;15.50;;;;;;;0.90;60.65;101070.47;10419480;28;20048;-73
2022/03/02 08:42:44;;;;;;;15.52;14.00;;;;;;;1.08;61.20;101049.31;10419316;28;20053;-71
2022/03/02 08:47:46;;;;;;;15.40;13.95;;;;;;;1.37;59.56;101045.63;10384956;28;20136;-73
2022/03/02 08:52:53;;;;;;;25.00;13.77;;;;;;;1.83;56.77;101037.94;10400711;28;20073;-72
2022/03/02 08:57:57;;;;;;;16.08;13.30;;;;;;;2.16;56.41;101032.50;10418878;28;20049;-72
2022/03/02 09:02:59;;;;;;;16.05;14.35;;;;;;;1.96;56.31;101037.34;10444535;28;20500;-72
2022/03/02 09:08:04;;;;;;;14.93;13.38;;;;;;;1.93;57.64;101030.38;10433294;28;20056;-73
2022/03/02 09:13:05;;;;;;;18.33;14.68;;;;;;;1.79;56.82;101028.34;10459057;28;20045;-72
2022/03/02 09:18:07;;;;;;;17.98;14.63;;;;;;;1.46;57.40;101025.13;10429718;28;20064;-73
2022/03/02 09:23:10;;;;;;;16.63;14.85;;;;;;;1.54;57.40;101024.38;10416844;28;20450;-73
2022/03/02 09:28:13;;;;;;;34.15;14.95;;;;;;;1.56;57.40;101020.13;10417596;28;20488;-73
2022/03/02 09:33:16;;;;;;;18.88;15.20;;;;;;;1.69;56.24;101010.03;10431139;28;20049;-73
2022/03/02 09:38:18;;;;;;;17.35;14.15;;;;;;;2.44;55.16;101006.22;10438148;28;20041;-71
2022/03/02 09:43:25;;;;;;;16.00;14.15;;;;;;;2.59;53.75;100994.34;10436945;28;20049;-71
2022/03/02 09:48:32;;;;;;;22.10;13.60;;;;;;;3.06;52.79;100996.78;10399768;28;20041;-72
2022/03/02 09:53:35;;;;;;;13.98;12.70;;;;;;;2.95;53.15;101001.81;10397315;28;20049;-72
2022/03/02 09:58:38;;;;;;;20.13;14.00;;;;;;;2.78;52.59;100994.63;10445467;28;20040;-71
2022/03/02 10:03:45;;;;;;;26.25;13.75;;;;;;;2.52;53.00;100985.56;10424715;28;20068;-70
2022/03/02 10:08:55;;;;;;;18.67;13.63;;;;;;;3.31;51.50;100978.06;10442451;28;20167;-70
2022/03/02 10:13:57;;;;;;;14.73;12.82;;;;;;;3.79;49.95;100977.78;10443014;28;20085;-71
2022/03/02 10:19:01;;;;;;;16.10;13.57;;;;;;;4.13;49.15;100974.66;10415757;28;20053;-70
2022/03/02 10:24:03;;;;;;;13.80;12.35;;;;;;;4.22;48.35;100965.19;10417025;28;20049;-70
2022/03/02 10:29:31;;;;;;;16.17;12.65;;;;;;;5.38;45.65;100954.66;10416116;28;20450;-72
2022/03/02 10:34:49;;;;;;;18.30;14.07;;;;;;;5.74;45.22;100943.47;10404533;28;20038;-71
2022/03/02 10:40:05;;;;;;;16.65;13.63;;;;;;;5.78;45.22;100942.63;10407172;28;20072;-71
2022/03/02 10:45:10;;;;;;;14.17;12.87;;;;;;;6.29;45.08;100938.38;10406673;28;20606;-71
2022/03/02 10:50:13;;;;;;;13.95;12.40;;;;;;;6.88;44.30;100933.94;10455376;28;20076;-71
2022/03/02 10:55:17;;;;;;;15.32;13.82;;;;;;;7.06;44.71;100939.13;10410795;28;20625;-70
2022/03/02 11:00:24;;;;;;;14.32;12.93;;;;;;;7.75;42.29;100920.53;10405336;28;20041;-70
2022/03/02 11:05:31;;;;;;;13.90;12.55;;;;;;;7.55;41.99;100924.97;10423124;28;20132;-70
2022/03/02 11:10:37;;;;;;;15.95;12.70;;;;;;;6.91;41.97;100914.78;10459214;28;20048;-71
2022/03/02 11:15:45;;;;;;;13.93;12.48;;;;;;;7.47;42.41;100911.94;10421114;28;20132;-71
2022/03/02 11:20:57;;;;;;;14.20;12.73;;;;;;;7.74;39.49;100916.13;10421918;28;20041;-70
2022/03/02 11:26:06;;;;;;;12.52;11.23;;;;;;;8.05;39.05;100900.22;10422213;28;20045;-70
2022/03/02 11:31:08;;;;;;;14.27;12.68;;;;;;;8.59;39.04;100890.22;10422346;28;20048;-70
2022/03/02 11:36:17;;;;;;;13.52;12.13;;;;;;;8.31;39.14;100884.31;10403736;28;20107;-70
2022/03/02 11:41:35;;;;;;;13.88;11.13;;;;;;;7.96;36.47;100877.59;10422871;28;20140;-71
2022/03/02 11:46:45;;;;;;;12.40;10.90;;;;;;;8.03;36.93;100883.69;10422076;28;20119;-71
2022/03/02 11:52:04;;;;;;;12.20;10.25;;;;;;;9.02;35.47;100858.25;10404554;28;20045;-71
2022/03/02 11:57:09;;;;;;;10.70;9.70;;;;;;;8.77;35.96;100857.69;10404042;28;20488;-70
2022/03/02 12:02:22;;;;;;;10.35;9.45;;;;;;;8.85;35.10;100850.56;10403195;28;20049;-73
2022/03/02 12:07:24;;;;;;;11.20;10.20;;;;;;;9.17;33.61;100839.72;10421009;28;20088;-70
2022/03/02 12:12:26;;;;;;;10.00;9.20;;;;;;;8.59;34.51;100832.56;10421766;28;20107;-70
2022/03/02 12:17:33;;;;;;;8.68;7.88;;;;;;;9.49;32.13;100817.41;10403101;28;20046;-70
2022/03/02 12:22:36;;;;;;;8.40;7.70;;;;;;;8.98;32.94;100812.84;10402521;28;20422;-71
2022/03/02 12:27:39;;;;;;;8.48;7.68;;;;;;;8.96;32.21;100812.00;10402639;28;20052;-70
2022/03/02 12:32:45;;;;;;;7.28;6.68;;;;;;;8.24;30.90;100810.16;10421315;28;20462;-70
2022/03/02 12:37:48;;;;;;;7.95;4.75;;;;;;;7.44;31.20;100809.09;10403779;28;20128;-71
2022/03/02 12:42:51;;;;;;;7.35;6.50;;;;;;;7.12;32.94;100802.28;10421173;28;20060;-71
2022/03/02 12:47:53;;;;;;;7.05;6.07;;;;;;;6.95;32.02;100798.88;10420655;28;20403;-72
2022/03/02 12:52:56;;;;;;;8.95;5.88;;;;;;;7.03;32.34;100802.31;10403088;28;20057;-71
2022/03/02 12:57:58;;;;;;;6.63;6.03;;;;;;;6.73;31.79;100795.47;10419076;28;20045;-71
2022/03/02 13:03:06;;;;;;;5.75;5.03;;;;;;;6.76;30.93;100791.13;10403632;28;20045;-70
2022/03/02 13:08:18;;;;;;;6.30;5.20;;;;;;;6.48;32.01;100786.88;10421464;28;20069;-71
2022/03/02 13:13:36;;;;;;;7.28;5.43;;;;;;;6.67;32.95;100780.72;10402754;28;20046;-70
2022/03/02 13:18:39;;;;;;;7.22;6.53;;;;;;;6.96;31.57;100777.97;10420562;28;20415;-71
2022/03/02 13:24:10;;;;;;;8.13;6.03;;;;;;;6.91;31.67;100778.88;10403635;28;20064;-71
2022/03/02 13:29:12;;;;;;;7.55;6.72;;;;;;;7.05;31.46;100775.31;10402419;28;20053;-71
2022/03/02 13:34:16;;;;;;;8.40;7.60;;;;;;;7.03;32.29;100766.59;10420382;28;20470;-71
2022/03/02 13:39:22;;;;;;;8.68;7.88;;;;;;;6.97;32.10;100766.63;10404334;28;20159;-72
2022/03/02 13:44:31;;;;;;;10.88;9.52;;;;;;;7.06;34.59;100763.09;10419901;28;20049;-70
2022/03/02 13:50:03;;;;;;;13.52;8.88;;;;;;;7.13;33.54;100758.69;10420852;28;20414;-71
2022/03/02 13:55:12;;;;;;;9.82;8.93;;;;;;;6.91;35.00;100758.84;10402450;28;20065;-71
2022/03/02 14:00:34;;;;;;;10.10;9.20;;;;;;;6.85;35.08;100755.38;10420297;28;20045;-71
2022/03/02 14:05:45;;;;;;;10.57;9.57;;;;;;;6.87;34.16;100751.91;10419987;28;20052;-70
2022/03/02 14:10:47;;;;;;;11.35;8.70;;;;;;;6.82;35.10;100751.06;10409303;28;20037;-71
2022/03/02 14:15:49;;;;;;;10.02;9.13;;;;;;;7.17;33.90;100748.25;10408735;28;20128;-71
2022/03/02 14:20:52;;;;;;;10.07;9.18;;;;;;;7.05;34.84;100746.56;10410379;28;20088;-70
2022/03/02 14:26:00;;;;;;;10.52;9.60;;;;;;;6.75;35.75;100752.81;10411411;28;20565;-71
2022/03/02 14:31:07;;;;;;;11.32;10.15;;;;;;;6.79;35.20;100751.91;10448911;28;20048;-72
2022/03/02 14:36:16;;;;;;;10.68;9.68;;;;;;;7.10;34.38;100740.44;10442905;28;20045;-71
2022/03/02 14:41:26;;;;;;;9.68;8.88;;;;;;;6.88;34.08;100739.69;10425468;28;20042;-72
2022/03/02 14:46:34;;;;;;;12.27;9.25;;;;;;;6.79;34.28;100733.63;10463527;28;20530;-71
2022/03/02 14:51:45;;;;;;;10.38;9.35;;;;;;;7.07;34.60;100728.25;10466165;28;20128;-72
2022/03/02 14:56:47;;;;;;;13.43;12.15;;;;;;;7.11;36.67;100723.88;10466210;28;20037;-69
2022/03/02 15:01:48;;;;;;;17.58;12.20;;;;;;;6.72;38.06;100720.59;10441193;28;20037;-72
2022/03/02 15:06:58;;;;;;;18.42;12.10;;;;;;;6.74;38.14;100711.88;10425513;28;20487;-72
2022/03/02 15:12:07;;;;;;;13.98;12.68;;;;;;;6.56;38.39;100710.22;10424059;28;20037;-72
2022/03/02 15:17:13;;;;;;;14.75;11.68;;;;;;;6.71;38.41;100703.19;10422948;28;20060;-72
2022/03/02 15:22:22;;;;;;;13.38;12.00;;;;;;;6.70;38.80;100699.72;10427381;28;20049;-73
2022/03/02 15:27:26;;;;;;;18.05;12.95;;;;;;;6.53;38.95;100693.72;10425217;28;20048;-75
2022/03/02 15:32:33;;;;;;;14.48;13.02;;;;;;;6.49;39.04;100694.59;10424632;28;20488;-73
2022/03/02 15:37:50;;;;;;;14.02;12.80;;;;;;;6.56;39.12;100681.50;10474421;22;20494;-71
2022/03/02 15:43:02;;;;;;;13.23;12.00;;;;;;;6.48;39.02;100679.81;10442910;28;20045;-71
2022/03/02 15:48:12;;;;;;;15.43;14.00;;;;;;;6.26;40.43;100679.03;10462279;28;20049;-71
2022/03/02 15:53:21;;;;;;;17.20;14.20;;;;;;;6.03;41.04;100682.59;10443891;28;20053;-71
2022/03/02 15:58:28;;;;;;;15.07;13.63;;;;;;;5.96;40.62;100673.03;10460706;28;20051;-71
2022/03/02 16:03:32;;;;;;;14.23;13.02;;;;;;;5.75;40.67;100668.69;10460135;28;20048;-72
2022/03/02 16:08:40;;;;;;;13.55;12.15;;;;;;;5.69;40.65;100670.44;10442223;28;20051;-71
2022/03/02 16:13:57;;;;;;;12.80;11.70;;;;;;;5.60;40.32;100673.06;10460053;28;20073;-71
2022/03/02 16:19:21;;;;;;;14.68;13.35;;;;;;;5.46;40.44;100673.97;10460050;28;20037;-70
2022/03/02 16:24:31;;;;;;;13.80;12.57;;;;;;;5.39;40.49;100680.03;10446084;28;20045;-71
2022/03/02 16:29:32;;;;;;;17.25;13.05;;;;;;;5.17;40.46;100678.28;10440107;28;20039;-71
2022/03/02 16:34:34;;;;;;;16.60;14.98;;;;;;;4.98;41.91;100680.03;10458221;28;20107;-71
2022/03/02 16:39:36;;;;;;;21.38;16.25;;;;;;;4.86;42.82;100686.06;10458250;28;20053;-72
2022/03/02 16:44:41;;;;;;;18.50;15.57;;;;;;;4.61;44.48;100681.69;10458520;28;20111;-73
2022/03/02 16:49:47;;;;;;;22.35;16.15;;;;;;;4.59;45.45;100684.28;10457716;28;20041;-71
2022/03/02 16:54:49;;;;;;;17.10;15.48;;;;;;;4.43;46.16;100678.16;10457409;28;20041;-71
2022/03/02 16:59:50;;;;;;;17.40;15.80;;;;;;;4.26;47.15;100685.91;10457193;28;20445;-70
2022/03/02 17:04:53;;;;;;;18.27;16.40;;;;;;;4.13;47.79;100684.09;10457278;28;20040;-71
2022/03/02 17:09:55;;;;;;;19.13;17.23;;;;;;;4.03;48.59;100691.00;10456714;28;20044;-72
2022/03/02 17:14:58;;;;;;;20.25;18.52;;;;;;;3.95;49.11;100691.81;10456561;28;20135;-71
2022/03/02 17:20:01;;;;;;;20.00;18.20;;;;;;;4.32;49.67;100689.38;10456519;28;20068;-71
2022/03/02 17:25:07;;;;;;;19.35;16.55;;;;;;;3.94;51.47;100688.34;10456804;28;20053;-71
2022/03/02 17:30:15;;;;;;;17.08;14.10;;;;;;;4.15;51.13;100669.34;10439447;28;20095;-71
2022/03/02 17:35:17;;;;;;;20.63;18.70;;;;;;;3.69;52.21;100676.06;10457288;28;20045;-72
2022/03/02 17:40:19;;;;;;;23.10;20.70;;;;;;;3.52;52.45;100681.13;10439550;28;20490;-72
2022/03/02 17:45:24;;;;;;;22.80;19.80;;;;;;;2.92;53.82;100693.63;10465373;28;20414;-72
2022/03/02 17:50:25;;;;;;;28.15;18.92;;;;;;;3.06;54.58;100683.38;10465517;28;20048;-72
2022/03/02 17:55:27;;;;;;;20.73;18.85;;;;;;;2.98;54.15;100680.69;10467193;28;20044;-73
2022/03/02 18:00:29;;;;;;;20.65;18.55;;;;;;;2.81;54.69;100681.38;10451922;28;20045;-71
2022/03/02 18:05:30;;;;;;;25.65;20.15;;;;;;;2.56;55.76;100681.09;10472933;28;20406;-72
2022/03/02 18:10:32;;;;;;;21.92;19.73;;;;;;;2.60;55.97;100674.22;10469481;28;20048;-72
2022/03/02 18:15:34;;;;;;;22.23;19.75;;;;;;;2.21;56.55;100684.19;10468227;28;20064;-72
2022/03/02 18:20:37;;;;;;;20.98;18.95;;;;;;;1.85;57.31;100681.09;10466045;28;20041;-71
2022/03/02 18:25:39;;;;;;;22.13;19.88;;;;;;;1.72;58.49;100693.84;10472109;28;20123;-73
2022/03/02 18:30:43;;;;;;;21.98;18.80;;;;;;;1.83;59.36;100696.63;10470559;28;20037;-72
2022/03/02 18:35:57;;;;;;;22.27;17.83;;;;;;;1.48;59.40;100701.28;10458369;28;20056;-73
2022/03/02 18:40:58;;;;;;;21.55;19.33;;;;;;;1.67;59.37;100716.25;10455291;28;20045;-72
2022/03/02 18:46:00;;;;;;;46.17;25.83;;;;;;;1.90;58.00;100703.63;10477556;28;20131;-73
2022/03/02 18:51:04;;;;;;;42.35;25.90;;;;;;;1.91;57.02;100707.13;10471910;28;20045;-72
2022/03/02 18:56:06;;;;;;;36.17;24.20;;;;;;;1.75;56.63;100693.03;10457735;28;20049;-72
2022/03/02 19:01:11;;;;;;;36.38;23.83;;;;;;;1.41;57.97;100684.75;10474532;28;20041;-72
2022/03/02 19:06:25;;;;;;;31.30;22.17;;;;;;;0.93;59.11;100696.06;10474906;28;20041;-72
2022/03/02 19:11:35;;;;;;;30.08;23.70;;;;;;;1.29;59.60;100694.06;10473771;28;20494;-72
2022/03/02 19:16:37;;;;;;;42.97;25.95;;;;;;;1.27;59.64;100697.47;10473889;28;20052;-72
2022/03/02 19:21:40;;;;;;;45.83;25.05;;;;;;;1.27;58.78;100706.97;10469378;28;20037;-72
2022/03/02 19:26:42;;;;;;;31.27;22.67;;;;;;;0.93;58.78;100702.91;10466111;28;20048;-72
2022/03/02 19:31:45;;;;;;;41.08;22.30;;;;;;;0.83;59.16;100708.78;10466664;28;20099;-72
2022/03/02 19:36:47;;;;;;;41.92;23.38;;;;;;;0.87;59.49;100695.94;10467945;28;20518;-71
2022/03/02 19:41:49;;;;;;;25.83;20.17;;;;;;;0.89;58.77;100690.81;10470259;28;20041;-72
2022/03/02 19:46:52;;;;;;;34.30;20.40;;;;;;;0.82;58.52;100697.56;10467851;28;20041;-72
2022/03/02 19:51:55;;;;;;;38.20;21.05;;;;;;;0.69;58.56;100691.28;10452157;28;20398;-72
2022/03/02 19:57:01;;;;;;;30.08;20.48;;;;;;;0.54;59.43;100688.44;10455418;28;20057;-71
2022/03/02 20:02:03;;;;;;;26.98;19.67;;;;;;;0.44;60.05;100692.56;10448851;28;20037;-72
2022/03/02 20:07:06;;;;;;;31.08;21.50;;;;;;;0.24;61.31;100686.97;10464763;28;20083;-73
2022/03/02 20:12:11;;;;;;;25.00;19.50;;;;;;;0.13;62.18;100672.94;10467308;28;20048;-71
2022/03/02 20:17:13;;;;;;;31.15;21.13;;;;;;;0.12;63.41;100676.38;10463633;28;20049;-71
2022/03/02 20:22:14;;;;;;;37.28;22.88;;;;;;;-0.02;62.95;100672.63;10465329;28;20048;-71
2022/03/02 20:27:16;;;;;;;31.55;22.35;;;;;;;-0.30;64.11;100676.34;10445770;28;20466;-72
2022/03/02 20:32:19;;;;;;;34.33;22.05;;;;;;;-0.49;63.90;100684.47;10463068;28;20147;-72
2022/03/02 20:37:21;;;;;;;32.92;21.83;;;;;;;-0.59;64.38;100680.81;10463180;28;20045;-71
2022/03/02 20:42:22;;;;;;;32.90;21.65;;;;;;;-0.71;64.15;100678.81;10446922;28;20048;-72
2022/03/02 20:47:24;;;;;;;46.33;24.98;;;;;;;-0.04;63.54;100675.19;10467178;28;20071;-73
2022/03/02 20:52:26;;;;;;;40.55;24.30;;;;;;;-0.04;62.18;100664.84;10463078;28;20045;-72
2022/03/02 20:57:27;;;;;;;49.25;24.67;;;;;;;-0.55;63.31;100685.22;10464364;28;20095;-70
2022/03/02 21:02:29;;;;;;;41.40;24.40;;;;;;;-0.83;64.58;100683.69;10448298;28;20049;-71
2022/03/02 21:07:31;;;;;;;35.78;23.80;;;;;;;-0.90;65.75;100684.38;10464645;28;20415;-71
2022/03/02 21:12:33;;;;;;;42.70;26.00;;;;;;;-0.84;66.56;100694.81;10446157;28;20524;-71
2022/03/02 21:17:35;;;;;;;25.30;22.63;;;;;;;-0.85;67.01;100678.47;10461735;28;20044;-72
2022/03/02 21:22:37;;;;;;;29.95;23.40;;;;;;;-0.70;65.67;100680.56;10441415;28;20052;-71
2022/03/02 21:27:38;;;;;;;35.30;22.95;;;;;;;-0.92;65.48;100680.88;10428812;28;20049;-71
2022/03/02 21:32:44;;;;;;;38.75;23.88;;;;;;;-0.82;67.57;100682.84;10446372;28;20037;-71
2022/03/02 21:37:46;;;;;;;33.72;23.23;;;;;;;-0.60;65.57;100669.63;10485982;22;20037;-74
2022/03/02 21:42:48;;;;;;;37.17;24.15;;;;;;;-0.79;66.10;100670.91;10487128;28;20044;-73
2022/03/02 21:47:50;;;;;;;38.03;24.52;;;;;;;-1.25;67.45;100668.84;10507060;28;20078;-72
2022/03/02 21:52:52;;;;;;;34.45;25.38;;;;;;;-1.24;68.42;100670.59;10485907;28;20074;-74
2022/03/02 21:57:54;;;;;;;35.65;23.73;;;;;;;-1.36;68.88;100659.97;10488633;28;20094;-73
2022/03/02 22:02:55;;;;;;;36.17;24.00;;;;;;;-1.38;67.79;100652.19;10503427;28;20095;-74
2022/03/02 22:07:58;;;;;;;36.47;25.15;;;;;;;-1.55;69.17;100651.75;10501851;28;20075;-74
2022/03/02 22:12:59;;;;;;;37.60;23.05;;;;;;;-1.75;69.19;100652.03;10484600;28;20048;-73
2022/03/02 22:18:01;;;;;;;35.90;24.77;;;;;;;-1.77;69.45;100646.84;10501669;28;20475;-72
2022/03/02 22:23:03;;;;;;;48.03;26.55;;;;;;;-1.86;69.99;100654.28;10502089;28;20039;-73
2022/03/02 22:28:05;;;;;;;45.72;25.52;;;;;;;-1.86;70.40;100665.50;10506723;28;20462;-72
2022/03/02 22:33:07;;;;;;;41.42;25.55;;;;;;;-1.82;70.67;100671.59;10496707;28;20036;-73
2022/03/02 22:38:09;;;;;;;46.08;26.08;;;;;;;-1.88;70.44;100674.88;10492403;28;20082;-74
2022/03/02 22:43:11;;;;;;;42.38;25.42;;;;;;;-1.80;70.72;100675.09;10510815;28;20041;-73
2022/03/02 22:48:14;;;;;;;49.10;26.42;;;;;;;-1.23;69.21;100671.50;10510361;28;20049;-73
2022/03/02 22:53:16;;;;;;;38.70;26.25;;;;;;;-1.36;68.79;100670.28;10511201;28;20094;-73
2022/03/02 22:58:17;;;;;;;44.55;25.73;;;;;;;-1.36;68.88;100670.28;10492345;28;20075;-74
2022/03/02 23:03:19;;;;;;;35.72;24.63;;;;;;;-1.61;69.13;100658.44;10509775;28;20124;-74